sensor_id;sensor_type;location;lat;lon;timestamp;pressure;altitude;pressure_sealevel;temperature;humidity
31681;BME280;18281;51.364;9.566;2022-11-15T00:00:24;99617.53;;;7.61;100.00
31681;BME280;18281;51.364;9.566;2022-11-15T00:02:52;99618.81;;;7.52;100.00
31681;BME280;18281;51.364;9.566;2022-11-15T00:05:18;99622.31;;;7.53;100.00
31681;BME280;18281;51.364;9.566;2022-11-15T00:07:43;99605.25;;;7.63;100.00
31681;BME280;18281;51.364;9.566;2022-11-15T00:10:09;99608.63;;;7.48;100.00
31681;BME280;18281;51.364;9.566;2022-11-15T00:12:34;99606.84;;;7.66;100.00
31681;BME280;18281;51.364;9.566;2022-11-15T00:14:59;99609.16;;;7.54;100.00
31681;BME280;18281;51.364;9.566;2022-11-15T00:17:25;99601.47;;;7.86;100.00
31681;BME280;18281;51.364;9.566;2022-11-15T00:19:50;99605.38;;;7.78;100.00
31681;BME280;18281;51.364;9.566;2022-11-15T00:22:15;99599.16;;;7.63;100.00
31681;BME280;18281;51.364;9.566;2022-11-15T00:24:41;99601.94;;;7.60;100.00
31681;BME280;18281;51.364;9.566;2022-11-15T00:27:07;99606.25;;;7.78;100.00
31681;BME280;18281;51.364;9.566;2022-11-15T00:29:33;99610.22;;;7.50;100.00
31681;BME280;18281;51.364;9.566;2022-11-15T00:31:58;99609.00;;;7.75;100.00
31681;BME280;18281;51.364;9.566;2022-11-15T00:34:24;99596.25;;;7.69;100.00
31681;BME280;18281;51.364;9.566;2022-11-15T00:36:49;99599.03;;;7.83;100.00
31681;BME280;18281;51.364;9.566;2022-11-15T00:39:14;99599.34;;;7.77;100.00
31681;BME280;18281;51.364;9.566;2022-11-15T00:41:40;99611.06;;;7.51;100.00
31681;BME280;18281;51.364;9.566;2022-11-15T00:44:05;99607.63;;;7.68;100.00
31681;BME280;18281;51.364;9.566;2022-11-15T00:46:31;99611.25;;;7.65;100.00
31681;BME280;18281;51.364;9.566;2022-11-15T00:48:56;99614.19;;;7.77;100.00
31681;BME280;18281;51.364;9.566;2022-11-15T00:51:21;99607.63;;;7.85;100.00
31681;BME280;18281;51.364;9.566;2022-11-15T00:53:47;99607.25;;;7.76;100.00
31681;BME280;18281;51.364;9.566;2022-11-15T00:56:12;99605.25;;;7.63;100.00
31681;BME280;18281;51.364;9.566;2022-11-15T00:58:37;99588.81;;;7.61;100.00
31681;BME280;18281;51.364;9.566;2022-11-15T01:01:12;99589.25;;;7.69;100.00
31681;BME280;18281;51.364;9.566;2022-11-15T01:03:39;99593.09;;;7.80;100.00
31681;BME280;18281;51.364;9.566;2022-11-15T01:06:06;99615.47;;;7.68;100.00
31681;BME280;18281;51.364;9.566;2022-11-15T01:08:31;99611.78;;;7.72;100.00
31681;BME280;18281;51.364;9.566;2022-11-15T01:11:04;99621.00;;;7.62;100.00
31681;BME280;18281;51.364;9.566;2022-11-15T01:13:32;99622.66;;;7.45;100.00
31681;BME280;18281;51.364;9.566;2022-11-15T01:15:57;99609.31;;;7.69;100.00
31681;BME280;18281;51.364;9.566;2022-11-15T01:18:23;99616.84;;;7.75;100.00
31681;BME280;18281;51.364;9.566;2022-11-15T01:20:48;99603.47;;;7.64;100.00
31681;BME280;18281;51.364;9.566;2022-11-15T01:23:14;99608.16;;;7.74;100.00
31681;BME280;18281;51.364;9.566;2022-11-15T01:25:39;99606.47;;;7.73;100.00
31681;BME280;18281;51.364;9.566;2022-11-15T01:28:04;99613.78;;;7.84;100.00
31681;BME280;18281;51.364;9.566;2022-11-15T01:30:30;99597.31;;;8.00;100.00
31681;BME280;18281;51.364;9.566;2022-11-15T01:32:55;99598.75;;;8.05;100.00
31681;BME280;18281;51.364;9.566;2022-11-15T01:35:21;99611.22;;;7.83;100.00
31681;BME280;18281;51.364;9.566;2022-11-15T01:37:46;99610.16;;;7.87;100.00
31681;BME280;18281;51.364;9.566;2022-11-15T01:40:12;99611.41;;;7.80;100.00
31681;BME280;18281;51.364;9.566;2022-11-15T01:42:37;99614.22;;;7.57;100.00
31681;BME280;18281;51.364;9.566;2022-11-15T01:45:04;99605.94;;;7.49;100.00
31681;BME280;18281;51.364;9.566;2022-11-15T01:47:39;99605.63;;;7.73;100.00
31681;BME280;18281;51.364;9.566;2022-11-15T01:50:09;99605.75;;;7.52;100.00
31681;BME280;18281;51.364;9.566;2022-11-15T01:52:37;99597.25;;;7.66;100.00
31681;BME280;18281;51.364;9.566;2022-11-15T01:57:31;99584.72;;;7.73;100.00
31681;BME280;18281;51.364;9.566;2022-11-15T01:59:57;99576.44;;;7.65;100.00
31681;BME280;18281;51.364;9.566;2022-11-15T02:02:23;99566.28;;;7.76;100.00
31681;BME280;18281;51.364;9.566;2022-11-15T02:04:48;99561.97;;;7.75;100.00
31681;BME280;18281;51.364;9.566;2022-11-15T02:07:18;99562.22;;;7.70;100.00
31681;BME280;18281;51.364;9.566;2022-11-15T02:09:45;99551.13;;;7.83;100.00
31681;BME280;18281;51.364;9.566;2022-11-15T02:12:14;99562.13;;;7.54;100.00
31681;BME280;18281;51.364;9.566;2022-11-15T02:14:42;99549.16;;;7.35;100.00
31681;BME280;18281;51.364;9.566;2022-11-15T02:20:12;99550.69;;;7.39;100.00
31681;BME280;18281;51.364;9.566;2022-11-15T02:22:51;99552.53;;;7.55;100.00
31681;BME280;18281;51.364;9.566;2022-11-15T02:28:10;99547.63;;;7.31;100.00
31681;BME280;18281;51.364;9.566;2022-11-15T02:39:54;99535.22;;;6.81;100.00
31681;BME280;18281;51.364;9.566;2022-11-15T02:42:26;99530.56;;;6.87;100.00
31681;BME280;18281;51.364;9.566;2022-11-15T02:45:19;99533.59;;;6.97;100.00
31681;BME280;18281;51.364;9.566;2022-11-15T02:47:50;99539.69;;;6.98;100.00
31681;BME280;18281;51.364;9.566;2022-11-15T02:50:19;99539.16;;;6.89;100.00
31681;BME280;18281;51.364;9.566;2022-11-15T02:52:48;99541.03;;;6.68;100.00
31681;BME280;18281;51.364;9.566;2022-11-15T02:55:36;99541.28;;;6.81;100.00
31681;BME280;18281;51.364;9.566;2022-11-15T02:58:23;99541.00;;;6.87;100.00
31681;BME280;18281;51.364;9.566;2022-11-15T03:12:15;99541.66;;;6.16;100.00
31681;BME280;18281;51.364;9.566;2022-11-15T03:14:55;99536.50;;;6.53;100.00
31681;BME280;18281;51.364;9.566;2022-11-15T03:17:26;99544.41;;;6.70;100.00
31681;BME280;18281;51.364;9.566;2022-11-15T03:19:56;99545.59;;;6.82;100.00
31681;BME280;18281;51.364;9.566;2022-11-15T03:22:24;99536.94;;;6.63;100.00
31681;BME280;18281;51.364;9.566;2022-11-15T03:24:54;99529.72;;;6.68;100.00
31681;BME280;18281;51.364;9.566;2022-11-15T03:27:21;99526.69;;;6.77;100.00
31681;BME280;18281;51.364;9.566;2022-11-15T03:29:52;99521.94;;;6.85;100.00
31681;BME280;18281;51.364;9.566;2022-11-15T03:32:23;99518.31;;;6.70;100.00
31681;BME280;18281;51.364;9.566;2022-11-15T03:38:03;99519.94;;;6.73;100.00
31681;BME280;18281;51.364;9.566;2022-11-15T03:40:42;99524.72;;;6.82;100.00
31681;BME280;18281;51.364;9.566;2022-11-15T03:45:51;99527.97;;;6.68;100.00
31681;BME280;18281;51.364;9.566;2022-11-15T03:48:27;99531.00;;;6.78;100.00
31681;BME280;18281;51.364;9.566;2022-11-15T03:50:56;99524.72;;;6.82;100.00
31681;BME280;18281;51.364;9.566;2022-11-15T03:53:21;99535.81;;;6.68;100.00
31681;BME280;18281;51.364;9.566;2022-11-15T03:55:47;99530.53;;;6.70;100.00
31681;BME280;18281;51.364;9.566;2022-11-15T03:58:12;99528.19;;;6.64;100.00
31681;BME280;18281;51.364;9.566;2022-11-15T04:00:38;99534.91;;;6.69;100.00
31681;BME280;18281;51.364;9.566;2022-11-15T04:03:03;99537.66;;;6.47;100.00
31681;BME280;18281;51.364;9.566;2022-11-15T04:05:28;99532.56;;;6.63;100.00
31681;BME280;18281;51.364;9.566;2022-11-15T04:07:54;99529.72;;;6.68;100.00
31681;BME280;18281;51.364;9.566;2022-11-15T04:10:19;99536.09;;;6.62;100.00
31681;BME280;18281;51.364;9.566;2022-11-15T04:12:45;99541.03;;;6.49;100.00
31681;BME280;18281;51.364;9.566;2022-11-15T04:15:16;99528.28;;;6.43;100.00
31681;BME280;18281;51.364;9.566;2022-11-15T04:20:13;99527.78;;;6.54;100.00
31681;BME280;18281;51.364;9.566;2022-11-15T04:22:59;99527.00;;;6.52;100.00
31681;BME280;18281;51.364;9.566;2022-11-15T04:25:43;99528.34;;;6.42;100.00
31681;BME280;18281;51.364;9.566;2022-11-15T04:28:09;99524.34;;;6.53;100.00
31681;BME280;18281;51.364;9.566;2022-11-15T04:30:35;99528.69;;;6.34;100.00
31681;BME280;18281;51.364;9.566;2022-11-15T04:33:00;99532.50;;;6.46;100.00
31681;BME280;18281;51.364;9.566;2022-11-15T04:35:26;99527.22;;;6.28;100.00
31681;BME280;18281;51.364;9.566;2022-11-15T04:37:52;99521.22;;;6.45;100.00
31681;BME280;18281;51.364;9.566;2022-11-15T04:40:17;99521.78;;;6.52;100.00
31681;BME280;18281;51.364;9.566;2022-11-15T04:42:42;99521.66;;;6.55;100.00
31681;BME280;18281;51.364;9.566;2022-11-15T04:45:08;99514.19;;;6.47;100.00
31681;BME280;18281;51.364;9.566;2022-11-15T04:47:34;99503.19;;;6.40;100.00
31681;BME280;18281;51.364;9.566;2022-11-15T04:49:59;99509.06;;;6.27;100.00
31681;BME280;18281;51.364;9.566;2022-11-15T04:52:25;99505.94;;;6.56;100.00
31681;BME280;18281;51.364;9.566;2022-11-15T04:54:50;99512.16;;;6.35;100.00
31681;BME280;18281;51.364;9.566;2022-11-15T04:57:15;99507.13;;;6.30;100.00
31681;BME280;18281;51.364;9.566;2022-11-15T04:59:41;99515.50;;;6.37;100.00
31681;BME280;18281;51.364;9.566;2022-11-15T05:02:06;99509.66;;;6.32;100.00
31681;BME280;18281;51.364;9.566;2022-11-15T05:04:31;99509.19;;;6.43;100.00
31681;BME280;18281;51.364;9.566;2022-11-15T05:06:56;99509.66;;;6.32;100.00
31681;BME280;18281;51.364;9.566;2022-11-15T05:09:23;99511.50;;;6.49;100.00
31681;BME280;18281;51.364;9.566;2022-11-15T05:11:48;99509.28;;;6.58;100.00
31681;BME280;18281;51.364;9.566;2022-11-15T05:14:14;99515.50;;;6.37;100.00
31681;BME280;18281;51.364;9.566;2022-11-15T05:16:41;99519.91;;;6.36;100.00
31681;BME280;18281;51.364;9.566;2022-11-15T05:19:07;99509.94;;;6.45;100.00
31681;BME280;18281;51.364;9.566;2022-11-15T05:21:33;99515.19;;;6.26;100.00
31681;BME280;18281;51.364;9.566;2022-11-15T05:23:58;99504.03;;;6.41;100.00
31681;BME280;18281;51.364;9.566;2022-11-15T05:26:24;99521.56;;;6.18;100.00
31681;BME280;18281;51.364;9.566;2022-11-15T05:28:54;99520.47;;;6.24;100.00
31681;BME280;18281;51.364;9.566;2022-11-15T05:31:20;99520.59;;;6.40;100.00
31681;BME280;18281;51.364;9.566;2022-11-15T05:33:46;99518.28;;;6.34;100.00
31681;BME280;18281;51.364;9.566;2022-11-15T05:36:31;99521.84;;;6.50;100.00
31681;BME280;18281;51.364;9.566;2022-11-15T05:38:59;99512.78;;;6.40;100.00
31681;BME280;18281;51.364;9.566;2022-11-15T05:41:31;99527.06;;;6.31;100.00
31681;BME280;18281;51.364;9.566;2022-11-15T05:43:58;99520.31;;;6.46;100.00
31681;BME280;18281;51.364;9.566;2022-11-15T05:46:25;99522.34;;;6.01;100.00
31681;BME280;18281;51.364;9.566;2022-11-15T05:48:52;99525.91;;;5.99;100.00
31681;BME280;18281;51.364;9.566;2022-11-15T05:51:19;99529.13;;;6.24;100.00
31681;BME280;18281;51.364;9.566;2022-11-15T05:53:46;99525.31;;;6.32;100.00
31681;BME280;18281;51.364;9.566;2022-11-15T05:56:12;99526.88;;;6.36;100.00
31681;BME280;18281;51.364;9.566;2022-11-15T05:58:38;99528.63;;;6.16;100.00
31681;BME280;18281;51.364;9.566;2022-11-15T06:01:04;99531.06;;;6.00;100.00
31681;BME280;18281;51.364;9.566;2022-11-15T06:03:29;99529.53;;;5.76;100.00
31681;BME280;18281;51.364;9.566;2022-11-15T06:05:56;99532.13;;;6.15;100.00
31681;BME280;18281;51.364;9.566;2022-11-15T06:08:21;99523.09;;;6.03;100.00
31681;BME280;18281;51.364;9.566;2022-11-15T06:10:47;99531.59;;;5.88;100.00
31681;BME280;18281;51.364;9.566;2022-11-15T06:13:12;99530.31;;;6.17;100.00
31681;BME280;18281;51.364;9.566;2022-11-15T06:15:37;99528.22;;;6.26;100.00
31681;BME280;18281;51.364;9.566;2022-11-15T06:18:03;99522.91;;;6.46;100.00
31681;BME280;18281;51.364;9.566;2022-11-15T06:20:29;99524.47;;;6.12;100.00
31681;BME280;18281;51.364;9.566;2022-11-15T06:23:03;99529.75;;;6.30;100.00
31681;BME280;18281;51.364;9.566;2022-11-15T06:25:29;99526.66;;;6.40;100.00
31681;BME280;18281;51.364;9.566;2022-11-15T06:27:56;99530.03;;;6.62;100.00
31681;BME280;18281;51.364;9.566;2022-11-15T06:30:22;99528.47;;;6.38;100.00
31681;BME280;18281;51.364;9.566;2022-11-15T06:32:48;99535.25;;;6.43;100.00
31681;BME280;18281;51.364;9.566;2022-11-15T06:35:14;99527.56;;;6.39;100.00
31681;BME280;18281;51.364;9.566;2022-11-15T06:37:40;99527.31;;;6.27;100.00
31681;BME280;18281;51.364;9.566;2022-11-15T06:40:07;99524.88;;;6.41;100.00
31681;BME280;18281;51.364;9.566;2022-11-15T06:42:33;99524.53;;;6.30;100.00
31681;BME280;18281;51.364;9.566;2022-11-15T06:44:58;99522.50;;;6.36;100.00
31681;BME280;18281;51.364;9.566;2022-11-15T06:47:24;99522.09;;;6.27;100.00
31681;BME280;18281;51.364;9.566;2022-11-15T06:49:49;99524.13;;;6.20;100.00
31681;BME280;18281;51.364;9.566;2022-11-15T06:52:14;99521.56;;;6.18;100.00
31681;BME280;18281;51.364;9.566;2022-11-15T06:54:40;99515.03;;;6.29;100.00
31681;BME280;18281;51.364;9.566;2022-11-15T06:57:05;99507.91;;;6.51;100.00
31681;BME280;18281;51.364;9.566;2022-11-15T06:59:30;99507.00;;;6.33;100.00
31681;BME280;18281;51.364;9.566;2022-11-15T07:01:56;99505.16;;;6.35;100.00
31681;BME280;18281;51.364;9.566;2022-11-15T07:04:21;99515.09;;;6.27;100.00
31681;BME280;18281;51.364;9.566;2022-11-15T07:06:47;99512.59;;;6.05;100.00
31681;BME280;18281;51.364;9.566;2022-11-15T07:09:14;99514.38;;;6.04;100.00
31681;BME280;18281;51.364;9.566;2022-11-15T07:11:39;99518.88;;;6.01;100.00
31681;BME280;18281;51.364;9.566;2022-11-15T07:14:05;99519.81;;;5.79;100.00
31681;BME280;18281;51.364;9.566;2022-11-15T07:16:30;99519.91;;;5.97;100.00
31681;BME280;18281;51.364;9.566;2022-11-15T07:18:56;99533.59;;;6.02;100.00
31681;BME280;18281;51.364;9.566;2022-11-15T07:21:21;99535.22;;;6.04;100.00
31681;BME280;18281;51.364;9.566;2022-11-15T07:23:46;99529.84;;;5.88;100.00
31681;BME280;18281;51.364;9.566;2022-11-15T07:26:12;99530.72;;;6.08;100.00
31681;BME280;18281;51.364;9.566;2022-11-15T07:28:37;99529.97;;;6.44;100.00
31681;BME280;18281;51.364;9.566;2022-11-15T07:31:07;99536.72;;;7.40;100.00
31681;BME280;18281;51.364;9.566;2022-11-15T07:33:33;99544.47;;;7.60;100.00
31681;BME280;18281;51.364;9.566;2022-11-15T07:36:00;99536.38;;;7.82;100.00
31681;BME280;18281;51.364;9.566;2022-11-15T07:38:27;99528.44;;;8.01;100.00
31681;BME280;18281;51.364;9.566;2022-11-15T07:41:00;99531.28;;;7.96;100.00
31681;BME280;18281;51.364;9.566;2022-11-15T07:43:26;99530.34;;;7.46;100.00
31681;BME280;18281;51.364;9.566;2022-11-15T07:45:55;99527.56;;;7.14;100.00
31681;BME280;18281;51.364;9.566;2022-11-15T07:48:20;99531.38;;;6.51;100.00
31681;BME280;18281;51.364;9.566;2022-11-15T07:50:46;99532.59;;;6.44;100.00
31681;BME280;18281;51.364;9.566;2022-11-15T07:53:11;99531.66;;;6.26;100.00
31681;BME280;18281;51.364;9.566;2022-11-15T07:55:37;99530.97;;;6.42;100.00
31681;BME280;18281;51.364;9.566;2022-11-15T07:58:07;99531.41;;;6.12;100.00
31681;BME280;18281;51.364;9.566;2022-11-15T08:00:34;99540.84;;;5.95;100.00
31681;BME280;18281;51.364;9.566;2022-11-15T08:03:03;99535.34;;;5.82;100.00
31681;BME280;18281;51.364;9.566;2022-11-15T08:05:28;99533.19;;;6.11;100.00
31681;BME280;18281;51.364;9.566;2022-11-15T08:07:57;99528.69;;;5.96;100.00
31681;BME280;18281;51.364;9.566;2022-11-15T08:10:22;99524.22;;;5.98;100.00
31681;BME280;18281;51.364;9.566;2022-11-15T08:12:47;99524.91;;;5.82;100.00
31681;BME280;18281;51.364;9.566;2022-11-15T08:15:13;99529.66;;;5.93;100.00
31681;BME280;18281;51.364;9.566;2022-11-15T08:17:38;99528.59;;;5.97;100.00
31681;BME280;18281;51.364;9.566;2022-11-15T08:20:04;99527.13;;;5.71;100.00
31681;BME280;18281;51.364;9.566;2022-11-15T08:22:29;99527.16;;;5.90;100.00
31681;BME280;18281;51.364;9.566;2022-11-15T08:24:55;99521.44;;;6.02;100.00
31681;BME280;18281;51.364;9.566;2022-11-15T08:27:20;99513.66;;;6.01;100.00
31681;BME280;18281;51.364;9.566;2022-11-15T08:29:47;99515.22;;;6.05;100.00
31681;BME280;18281;51.364;9.566;2022-11-15T08:32:13;99528.22;;;6.05;100.00
31681;BME280;18281;51.364;9.566;2022-11-15T08:34:38;99530.41;;;5.95;100.00
31681;BME280;18281;51.364;9.566;2022-11-15T08:37:04;99523.81;;;6.26;100.00
31681;BME280;18281;51.364;9.566;2022-11-15T08:39:30;99516.50;;;6.15;100.00
31681;BME280;18281;51.364;9.566;2022-11-15T08:41:56;99517.81;;;6.05;100.00
31681;BME280;18281;51.364;9.566;2022-11-15T08:44:21;99503.03;;;6.63;100.00
31681;BME280;18281;51.364;9.566;2022-11-15T08:46:46;99494.06;;;7.05;100.00
31681;BME280;18281;51.364;9.566;2022-11-15T08:49:12;99496.06;;;7.00;100.00
31681;BME280;18281;51.364;9.566;2022-11-15T08:51:37;99492.81;;;6.95;100.00
31681;BME280;18281;51.364;9.566;2022-11-15T08:54:02;99487.41;;;6.99;100.00
31681;BME280;18281;51.364;9.566;2022-11-15T08:56:28;99496.16;;;6.79;100.00
31681;BME280;18281;51.364;9.566;2022-11-15T08:58:53;99478.03;;;6.95;100.00
31681;BME280;18281;51.364;9.566;2022-11-15T09:01:19;99479.06;;;6.91;100.00
31681;BME280;18281;51.364;9.566;2022-11-15T09:03:45;99468.38;;;6.78;100.00
31681;BME280;18281;51.364;9.566;2022-11-15T09:06:11;99477.00;;;6.80;100.00
31681;BME280;18281;51.364;9.566;2022-11-15T09:08:37;99482.66;;;6.71;100.00
31681;BME280;18281;51.364;9.566;2022-11-15T09:11:06;99485.13;;;6.55;100.00
31681;BME280;18281;51.364;9.566;2022-11-15T09:13:32;99484.44;;;6.32;100.00
31681;BME280;18281;51.364;9.566;2022-11-15T09:15:59;99480.72;;;6.38;100.00
31681;BME280;18281;51.364;9.566;2022-11-15T09:18:25;99477.88;;;6.62;100.00
31681;BME280;18281;51.364;9.566;2022-11-15T09:20:50;99464.16;;;6.76;100.00
31681;BME280;18281;51.364;9.566;2022-11-15T09:23:16;99474.19;;;6.66;100.00
31681;BME280;18281;51.364;9.566;2022-11-15T09:25:41;99470.91;;;6.80;100.00
31681;BME280;18281;51.364;9.566;2022-11-15T09:28:07;99476.84;;;6.83;100.00
31681;BME280;18281;51.364;9.566;2022-11-15T09:30:32;99472.09;;;6.91;100.00
31681;BME280;18281;51.364;9.566;2022-11-15T09:32:58;99476.28;;;6.77;100.00
31681;BME280;18281;51.364;9.566;2022-11-15T09:35:23;99478.38;;;6.87;100.00
31681;BME280;18281;51.364;9.566;2022-11-15T09:37:48;99472.66;;;6.98;100.00
31681;BME280;18281;51.364;9.566;2022-11-15T09:40:15;99476.66;;;6.69;100.00
31681;BME280;18281;51.364;9.566;2022-11-15T09:43:18;99474.69;;;6.91;100.00
31681;BME280;18281;51.364;9.566;2022-11-15T09:46:16;99468.53;;;6.75;100.00
31681;BME280;18281;51.364;9.566;2022-11-15T09:48:48;99481.25;;;6.81;100.00
31681;BME280;18281;51.364;9.566;2022-11-15T09:51:24;99475.72;;;7.06;100.00
31681;BME280;18281;51.364;9.566;2022-11-15T09:54:33;99473.97;;;7.24;100.00
31681;BME280;18281;51.364;9.566;2022-11-15T09:56:51;99477.13;;;7.14;100.00
31681;BME280;18281;51.364;9.566;2022-11-15T10:04:50;99471.44;;;7.40;100.00
31681;BME280;18281;51.364;9.566;2022-11-15T10:07:23;99476.13;;;7.34;100.00
31681;BME280;18281;51.364;9.566;2022-11-15T10:10:00;99477.03;;;7.50;100.00
31681;BME280;18281;51.364;9.566;2022-11-15T10:12:28;99474.84;;;7.58;100.00
31681;BME280;18281;51.364;9.566;2022-11-15T10:15:11;99467.81;;;7.61;100.00
31681;BME280;18281;51.364;9.566;2022-11-15T10:20:50;99467.03;;;7.41;100.00
31681;BME280;18281;51.364;9.566;2022-11-15T10:23:20;99466.72;;;7.65;100.00
31681;BME280;18281;51.364;9.566;2022-11-15T10:25:54;99464.41;;;7.58;100.00
31681;BME280;18281;51.364;9.566;2022-11-15T10:30:48;99440.53;;;7.82;100.00
31681;BME280;18281;51.364;9.566;2022-11-15T10:33:27;99441.88;;;7.89;100.00
31681;BME280;18281;51.364;9.566;2022-11-15T10:36:15;99441.38;;;7.83;100.00
31681;BME280;18281;51.364;9.566;2022-11-15T10:41:23;99428.75;;;8.07;100.00
31681;BME280;18281;51.364;9.566;2022-11-15T10:46:34;99430.25;;;8.11;100.00
31681;BME280;18281;51.364;9.566;2022-11-15T10:51:49;99412.41;;;8.19;100.00
31681;BME280;18281;51.364;9.566;2022-11-15T10:57:22;99408.69;;;8.23;100.00
31681;BME280;18281;51.364;9.566;2022-11-15T10:59:51;99398.47;;;8.19;100.00
31681;BME280;18281;51.364;9.566;2022-11-15T11:02:38;99398.06;;;8.27;100.00
31681;BME280;18281;51.364;9.566;2022-11-15T11:05:24;99381.50;;;8.42;100.00
31681;BME280;18281;51.364;9.566;2022-11-15T11:08:02;99390.63;;;8.51;100.00
31681;BME280;18281;51.364;9.566;2022-11-15T11:10:28;99383.88;;;8.47;100.00
31681;BME280;18281;51.364;9.566;2022-11-15T11:12:54;99376.66;;;8.36;100.00
31681;BME280;18281;51.364;9.566;2022-11-15T11:15:19;99371.38;;;8.52;100.00
31681;BME280;18281;51.364;9.566;2022-11-15T11:18:10;99388.44;;;9.18;100.00
31681;BME280;18281;51.364;9.566;2022-11-15T11:20:45;99386.22;;;9.55;100.00
31681;BME280;18281;51.364;9.566;2022-11-15T11:26:03;99386.06;;;9.73;100.00
31681;BME280;18281;51.364;9.566;2022-11-15T11:28:48;99381.38;;;9.78;100.00
31681;BME280;18281;51.364;9.566;2022-11-15T11:39:31;99366.78;;;9.74;100.00
31681;BME280;18281;51.364;9.566;2022-11-15T11:44:48;99360.31;;;9.51;100.00
31681;BME280;18281;51.364;9.566;2022-11-15T11:47:23;99352.94;;;9.43;100.00
31681;BME280;18281;51.364;9.566;2022-11-15T11:55:42;99348.81;;;9.39;100.00
31681;BME280;18281;51.364;9.566;2022-11-15T11:58:28;99346.19;;;9.39;100.00
31681;BME280;18281;51.364;9.566;2022-11-15T12:01:20;99347.03;;;9.39;100.00
31681;BME280;18281;51.364;9.566;2022-11-15T12:04:11;99338.41;;;9.52;100.00
31681;BME280;18281;51.364;9.566;2022-11-15T12:06:55;99333.28;;;9.65;100.00
31681;BME280;18281;51.364;9.566;2022-11-15T12:09:30;99321.75;;;9.82;100.00
31681;BME280;18281;51.364;9.566;2022-11-15T12:17:31;99310.28;;;9.83;100.00
31681;BME280;18281;51.364;9.566;2022-11-15T12:20:04;99306.50;;;10.01;100.00
31681;BME280;18281;51.364;9.566;2022-11-15T12:23:01;99304.41;;;10.06;100.00
31681;BME280;18281;51.364;9.566;2022-11-15T12:26:04;99296.78;;;10.16;100.00
31681;BME280;18281;51.364;9.566;2022-11-15T12:31:06;99288.13;;;10.29;100.00
31681;BME280;18281;51.364;9.566;2022-11-15T12:33:43;99283.44;;;10.34;100.00
31681;BME280;18281;51.364;9.566;2022-11-15T12:41:30;99277.59;;;10.16;100.00
31681;BME280;18281;51.364;9.566;2022-11-15T12:43:56;99280.00;;;10.19;100.00
31681;BME280;18281;51.364;9.566;2022-11-15T12:59:56;99266.53;;;10.76;100.00
31681;BME280;18281;51.364;9.566;2022-11-15T13:02:30;99255.00;;;10.79;100.00
31681;BME280;18281;51.364;9.566;2022-11-15T13:17:48;99232.66;;;10.61;100.00
31681;BME280;18281;51.364;9.566;2022-11-15T13:28:29;99228.13;;;10.37;100.00
31681;BME280;18281;51.364;9.566;2022-11-15T13:31:01;99216.47;;;10.41;100.00
31681;BME280;18281;51.364;9.566;2022-11-15T13:33:35;99219.63;;;10.46;100.00
31681;BME280;18281;51.364;9.566;2022-11-15T13:36:20;99217.47;;;10.25;100.00
31681;BME280;18281;51.364;9.566;2022-11-15T13:39:23;99218.66;;;10.34;100.00
31681;BME280;18281;51.364;9.566;2022-11-15T13:41:50;99211.75;;;10.46;100.00
31681;BME280;18281;51.364;9.566;2022-11-15T13:44:22;99211.94;;;10.43;100.00
31681;BME280;18281;51.364;9.566;2022-11-15T13:46:47;99217.19;;;10.43;100.00
31681;BME280;18281;51.364;9.566;2022-11-15T13:49:13;99222.53;;;10.41;100.00
31681;BME280;18281;51.364;9.566;2022-11-15T13:51:50;99212.25;;;10.38;100.00
31681;BME280;18281;51.364;9.566;2022-11-15T13:57:20;99203.84;;;10.59;100.00
31681;BME280;18281;51.364;9.566;2022-11-15T13:59:56;99197.56;;;10.62;100.00
31681;BME280;18281;51.364;9.566;2022-11-15T14:02:30;99194.22;;;10.59;100.00
31681;BME280;18281;51.364;9.566;2022-11-15T14:08:01;99206.41;;;10.61;100.00
31681;BME280;18281;51.364;9.566;2022-11-15T14:10:34;99188.63;;;10.64;100.00
31681;BME280;18281;51.364;9.566;2022-11-15T14:13:02;99188.00;;;10.73;100.00
31681;BME280;18281;51.364;9.566;2022-11-15T14:15:35;99185.06;;;10.78;100.00
31681;BME280;18281;51.364;9.566;2022-11-15T14:18:01;99177.41;;;10.75;100.00
31681;BME280;18281;51.364;9.566;2022-11-15T14:20:36;99180.16;;;10.61;100.00
31681;BME280;18281;51.364;9.566;2022-11-15T14:26:04;99189.16;;;10.56;100.00
31681;BME280;18281;51.364;9.566;2022-11-15T14:28:32;99185.06;;;10.65;100.00
31681;BME280;18281;51.364;9.566;2022-11-15T14:30:59;99178.78;;;10.68;100.00
31681;BME280;18281;51.364;9.566;2022-11-15T14:35:57;99175.53;;;10.38;100.00
31681;BME280;18281;51.364;9.566;2022-11-15T14:38:24;99175.00;;;10.33;100.00
31681;BME280;18281;51.364;9.566;2022-11-15T14:40:50;99171.22;;;10.50;100.00
31681;BME280;18281;51.364;9.566;2022-11-15T14:43:16;99162.84;;;10.58;100.00
31681;BME280;18281;51.364;9.566;2022-11-15T14:45:42;99161.88;;;10.59;100.00
31681;BME280;18281;51.364;9.566;2022-11-15T14:48:07;99165.22;;;10.48;100.00
31681;BME280;18281;51.364;9.566;2022-11-15T14:50:34;99164.94;;;10.53;100.00
31681;BME280;18281;51.364;9.566;2022-11-15T14:52:59;99154.31;;;10.54;100.00
31681;BME280;18281;51.364;9.566;2022-11-15T14:57:52;99151.47;;;10.57;100.00
31681;BME280;18281;51.364;9.566;2022-11-15T15:00:18;99154.53;;;10.38;100.00
31681;BME280;18281;51.364;9.566;2022-11-15T15:02:45;99151.91;;;10.38;100.00
31681;BME280;18281;51.364;9.566;2022-11-15T15:05:18;99160.06;;;10.08;100.00
31681;BME280;18281;51.364;9.566;2022-11-15T15:07:44;99152.13;;;10.22;100.00
31681;BME280;18281;51.364;9.566;2022-11-15T15:10:10;99149.91;;;10.16;100.00
31681;BME280;18281;51.364;9.566;2022-11-15T15:12:36;99148.75;;;10.07;100.00
31681;BME280;18281;51.364;9.566;2022-11-15T15:15:01;99148.97;;;10.17;100.00
31681;BME280;18281;51.364;9.566;2022-11-15T15:17:27;99149.91;;;10.16;100.00
31681;BME280;18281;51.364;9.566;2022-11-15T15:19:52;99158.19;;;10.10;100.00
31681;BME280;18281;51.364;9.566;2022-11-15T15:22:19;99149.69;;;9.94;100.00
31681;BME280;18281;51.364;9.566;2022-11-15T15:24:46;99136.94;;;9.74;100.00
31681;BME280;18281;51.364;9.566;2022-11-15T15:27:12;99143.06;;;9.88;100.00